sensor_id;sensor_type;location;lat;lon;timestamp;P1;durP1;ratioP1;P2;durP2;ratioP2
51718;SDS011;37795;53.236;5.704;2023-04-30T00:01:28;6.03;;;3.47;;
51718;SDS011;37795;53.236;5.704;2023-04-30T00:03:54;8.63;;;4.37;;
51718;SDS011;37795;53.236;5.704;2023-04-30T00:06:20;6.50;;;4.47;;
51718;SDS011;37795;53.236;5.704;2023-04-30T00:08:45;11.77;;;5.40;;
51718;SDS011;37795;53.236;5.704;2023-04-30T00:11:11;6.13;;;4.50;;
51718;SDS011;37795;53.236;5.704;2023-04-30T00:13:37;5.00;;;4.13;;
51718;SDS011;37795;53.236;5.704;2023-04-30T00:16:02;5.53;;;4.83;;
51718;SDS011;37795;53.236;5.704;2023-04-30T00:18:28;6.30;;;4.38;;
51718;SDS011;37795;53.236;5.704;2023-04-30T00:20:54;10.70;;;4.27;;
51718;SDS011;37795;53.236;5.704;2023-04-30T00:23:20;7.80;;;4.73;;
51718;SDS011;37795;53.236;5.704;2023-04-30T00:25:46;5.87;;;4.13;;
51718;SDS011;37795;53.236;5.704;2023-04-30T00:28:11;8.07;;;4.90;;
51718;SDS011;37795;53.236;5.704;2023-04-30T00:30:37;9.97;;;4.50;;
51718;SDS011;37795;53.236;5.704;2023-04-30T00:33:03;9.57;;;4.40;;
51718;SDS011;37795;53.236;5.704;2023-04-30T00:35:29;10.32;;;3.75;;
51718;SDS011;37795;53.236;5.704;2023-04-30T00:37:55;7.30;;;4.90;;
51718;SDS011;37795;53.236;5.704;2023-04-30T00:40:21;15.47;;;5.40;;
51718;SDS011;37795;53.236;5.704;2023-04-30T00:42:46;6.87;;;4.40;;
51718;SDS011;37795;53.236;5.704;2023-04-30T00:45:12;5.75;;;3.90;;
51718;SDS011;37795;53.236;5.704;2023-04-30T00:47:38;16.00;;;5.70;;
51718;SDS011;37795;53.236;5.704;2023-04-30T00:50:05;10.30;;;6.15;;
51718;SDS011;37795;53.236;5.704;2023-04-30T00:52:31;6.72;;;4.55;;
51718;SDS011;37795;53.236;5.704;2023-04-30T00:54:57;10.07;;;4.40;;
51718;SDS011;37795;53.236;5.704;2023-04-30T00:57:23;5.13;;;4.60;;
51718;SDS011;37795;53.236;5.704;2023-04-30T00:59:49;8.48;;;4.35;;
51718;SDS011;37795;53.236;5.704;2023-04-30T01:02:15;6.53;;;4.93;;
51718;SDS011;37795;53.236;5.704;2023-04-30T01:04:42;13.57;;;5.35;;
51718;SDS011;37795;53.236;5.704;2023-04-30T01:07:07;10.57;;;4.97;;
51718;SDS011;37795;53.236;5.704;2023-04-30T01:09:33;7.73;;;3.67;;
51718;SDS011;37795;53.236;5.704;2023-04-30T01:14:39;15.52;;;4.97;;
51718;SDS011;37795;53.236;5.704;2023-04-30T01:17:20;8.57;;;5.28;;
51718;SDS011;37795;53.236;5.704;2023-04-30T01:19:55;9.48;;;5.63;;
51718;SDS011;37795;53.236;5.704;2023-04-30T01:25:04;9.50;;;5.60;;
51718;SDS011;37795;53.236;5.704;2023-04-30T01:30:27;9.00;;;5.00;;
51718;SDS011;37795;53.236;5.704;2023-04-30T01:32:56;9.02;;;5.38;;
51718;SDS011;37795;53.236;5.704;2023-04-30T01:35:24;11.55;;;5.18;;
51718;SDS011;37795;53.236;5.704;2023-04-30T01:43:33;10.98;;;4.75;;
51718;SDS011;37795;53.236;5.704;2023-04-30T01:46:23;10.13;;;5.60;;
51718;SDS011;37795;53.236;5.704;2023-04-30T01:49:14;7.93;;;4.82;;
51718;SDS011;37795;53.236;5.704;2023-04-30T01:51:51;11.15;;;4.70;;
51718;SDS011;37795;53.236;5.704;2023-04-30T01:54:30;5.30;;;4.50;;
51718;SDS011;37795;53.236;5.704;2023-04-30T01:57:12;10.18;;;5.30;;
51718;SDS011;37795;53.236;5.704;2023-04-30T01:59:46;6.20;;;4.05;;
51718;SDS011;37795;53.236;5.704;2023-04-30T02:02:11;8.40;;;4.77;;
51718;SDS011;37795;53.236;5.704;2023-04-30T02:04:37;10.13;;;4.57;;
51718;SDS011;37795;53.236;5.704;2023-04-30T02:07:03;16.83;;;4.97;;
51718;SDS011;37795;53.236;5.704;2023-04-30T02:09:29;10.70;;;4.33;;
51718;SDS011;37795;53.236;5.704;2023-04-30T02:11:54;6.50;;;4.47;;
51718;SDS011;37795;53.236;5.704;2023-04-30T02:14:21;10.93;;;4.15;;
51718;SDS011;37795;53.236;5.704;2023-04-30T02:16:47;10.07;;;4.50;;
51718;SDS011;37795;53.236;5.704;2023-04-30T02:19:13;6.33;;;5.30;;
51718;SDS011;37795;53.236;5.704;2023-04-30T02:21:38;8.03;;;4.60;;
51718;SDS011;37795;53.236;5.704;2023-04-30T02:24:04;10.50;;;5.40;;
51718;SDS011;37795;53.236;5.704;2023-04-30T02:26:30;6.82;;;4.22;;
51718;SDS011;37795;53.236;5.704;2023-04-30T02:28:56;14.03;;;4.87;;
51718;SDS011;37795;53.236;5.704;2023-04-30T02:31:22;8.00;;;4.20;;
51718;SDS011;37795;53.236;5.704;2023-04-30T02:33:47;11.63;;;5.17;;
51718;SDS011;37795;53.236;5.704;2023-04-30T02:36:13;9.73;;;5.13;;
51718;SDS011;37795;53.236;5.704;2023-04-30T02:38:39;13.40;;;5.23;;
51718;SDS011;37795;53.236;5.704;2023-04-30T02:41:04;7.03;;;4.90;;
51718;SDS011;37795;53.236;5.704;2023-04-30T02:43:30;8.13;;;5.13;;
51718;SDS011;37795;53.236;5.704;2023-04-30T02:45:56;7.43;;;4.60;;
51718;SDS011;37795;53.236;5.704;2023-04-30T02:48:21;4.93;;;4.00;;
51718;SDS011;37795;53.236;5.704;2023-04-30T02:50:47;10.50;;;5.37;;
51718;SDS011;37795;53.236;5.704;2023-04-30T02:53:13;7.23;;;4.13;;
51718;SDS011;37795;53.236;5.704;2023-04-30T02:55:38;5.77;;;4.17;;
51718;SDS011;37795;53.236;5.704;2023-04-30T02:58:04;11.65;;;4.93;;
51718;SDS011;37795;53.236;5.704;2023-04-30T03:00:30;8.43;;;4.07;;
51718;SDS011;37795;53.236;5.704;2023-04-30T03:02:56;9.40;;;3.77;;
51718;SDS011;37795;53.236;5.704;2023-04-30T03:05:22;15.00;;;5.10;;
51718;SDS011;37795;53.236;5.704;2023-04-30T03:07:48;8.38;;;4.65;;
51718;SDS011;37795;53.236;5.704;2023-04-30T03:10:14;8.97;;;4.00;;
51718;SDS011;37795;53.236;5.704;2023-04-30T03:12:40;5.50;;;4.50;;
51718;SDS011;37795;53.236;5.704;2023-04-30T03:15:06;7.53;;;4.17;;
51718;SDS011;37795;53.236;5.704;2023-04-30T03:17:32;7.70;;;4.93;;
51718;SDS011;37795;53.236;5.704;2023-04-30T03:19:58;5.37;;;4.87;;
51718;SDS011;37795;53.236;5.704;2023-04-30T03:22:23;6.67;;;4.23;;
51718;SDS011;37795;53.236;5.704;2023-04-30T03:27:16;8.52;;;4.63;;
51718;SDS011;37795;53.236;5.704;2023-04-30T03:29:41;9.03;;;4.83;;
51718;SDS011;37795;53.236;5.704;2023-04-30T03:32:07;11.80;;;5.13;;
51718;SDS011;37795;53.236;5.704;2023-04-30T03:34:33;7.50;;;4.23;;
51718;SDS011;37795;53.236;5.704;2023-04-30T03:36:58;7.97;;;4.37;;
51718;SDS011;37795;53.236;5.704;2023-04-30T03:41:51;6.80;;;5.07;;
51718;SDS011;37795;53.236;5.704;2023-04-30T03:44:17;8.93;;;4.83;;
51718;SDS011;37795;53.236;5.704;2023-04-30T03:46:42;4.80;;;4.33;;
51718;SDS011;37795;53.236;5.704;2023-04-30T03:49:08;8.32;;;4.45;;
51718;SDS011;37795;53.236;5.704;2023-04-30T03:51:35;9.07;;;4.35;;
51718;SDS011;37795;53.236;5.704;2023-04-30T03:54:05;9.80;;;4.25;;
51718;SDS011;37795;53.236;5.704;2023-04-30T03:56:32;9.93;;;4.30;;
51718;SDS011;37795;53.236;5.704;2023-04-30T03:58:58;6.68;;;5.55;;
51718;SDS011;37795;53.236;5.704;2023-04-30T04:01:25;6.22;;;5.32;;
51718;SDS011;37795;53.236;5.704;2023-04-30T04:03:51;19.17;;;6.00;;
51718;SDS011;37795;53.236;5.704;2023-04-30T04:06:17;10.95;;;4.85;;
51718;SDS011;37795;53.236;5.704;2023-04-30T04:08:43;8.73;;;5.13;;
51718;SDS011;37795;53.236;5.704;2023-04-30T04:11:09;13.00;;;5.47;;
51718;SDS011;37795;53.236;5.704;2023-04-30T04:13:35;15.20;;;4.90;;
51718;SDS011;37795;53.236;5.704;2023-04-30T04:16:01;7.63;;;5.47;;
51718;SDS011;37795;53.236;5.704;2023-04-30T04:18:26;15.37;;;5.40;;
51718;SDS011;37795;53.236;5.704;2023-04-30T04:20:53;10.97;;;5.17;;
51718;SDS011;37795;53.236;5.704;2023-04-30T04:23:20;10.00;;;4.82;;
51718;SDS011;37795;53.236;5.704;2023-04-30T04:25:46;7.75;;;4.13;;
51718;SDS011;37795;53.236;5.704;2023-04-30T04:28:14;7.43;;;4.35;;
51718;SDS011;37795;53.236;5.704;2023-04-30T04:30:41;6.35;;;4.63;;
51718;SDS011;37795;53.236;5.704;2023-04-30T04:33:07;8.02;;;4.45;;
51718;SDS011;37795;53.236;5.704;2023-04-30T04:35:33;6.37;;;4.60;;
51718;SDS011;37795;53.236;5.704;2023-04-30T04:37:59;11.97;;;5.03;;
51718;SDS011;37795;53.236;5.704;2023-04-30T04:40:25;9.68;;;5.00;;
51718;SDS011;37795;53.236;5.704;2023-04-30T04:42:51;9.83;;;5.40;;
51718;SDS011;37795;53.236;5.704;2023-04-30T04:45:16;10.90;;;5.23;;
51718;SDS011;37795;53.236;5.704;2023-04-30T04:47:44;12.13;;;5.72;;
51718;SDS011;37795;53.236;5.704;2023-04-30T04:50:11;10.10;;;4.95;;
51718;SDS011;37795;53.236;5.704;2023-04-30T04:52:37;7.88;;;5.07;;
51718;SDS011;37795;53.236;5.704;2023-04-30T04:55:03;13.60;;;7.03;;
51718;SDS011;37795;53.236;5.704;2023-04-30T04:57:29;14.45;;;5.85;;
51718;SDS011;37795;53.236;5.704;2023-04-30T04:59:55;13.73;;;5.33;;
51718;SDS011;37795;53.236;5.704;2023-04-30T05:02:21;8.30;;;4.38;;
51718;SDS011;37795;53.236;5.704;2023-04-30T05:04:48;12.40;;;5.70;;
51718;SDS011;37795;53.236;5.704;2023-04-30T05:07:16;7.55;;;4.65;;
51718;SDS011;37795;53.236;5.704;2023-04-30T05:09:45;13.90;;;4.87;;
51718;SDS011;37795;53.236;5.704;2023-04-30T05:12:12;9.52;;;4.10;;
51718;SDS011;37795;53.236;5.704;2023-04-30T05:14:38;7.18;;;4.63;;
51718;SDS011;37795;53.236;5.704;2023-04-30T05:17:03;9.27;;;5.80;;
51718;SDS011;37795;53.236;5.704;2023-04-30T05:19:29;9.30;;;5.10;;
51718;SDS011;37795;53.236;5.704;2023-04-30T05:21:55;10.63;;;6.00;;
51718;SDS011;37795;53.236;5.704;2023-04-30T05:24:21;6.30;;;4.70;;
51718;SDS011;37795;53.236;5.704;2023-04-30T05:26:47;10.07;;;4.67;;
51718;SDS011;37795;53.236;5.704;2023-04-30T05:29:12;9.10;;;5.17;;
51718;SDS011;37795;53.236;5.704;2023-04-30T05:31:38;6.07;;;4.33;;
51718;SDS011;37795;53.236;5.704;2023-04-30T05:34:04;11.37;;;5.07;;
51718;SDS011;37795;53.236;5.704;2023-04-30T05:36:30;7.40;;;4.10;;
51718;SDS011;37795;53.236;5.704;2023-04-30T05:38:56;10.57;;;4.28;;
51718;SDS011;37795;53.236;5.704;2023-04-30T05:41:22;11.43;;;5.20;;
51718;SDS011;37795;53.236;5.704;2023-04-30T05:43:47;10.83;;;5.83;;
51718;SDS011;37795;53.236;5.704;2023-04-30T05:46:13;9.40;;;4.50;;
51718;SDS011;37795;53.236;5.704;2023-04-30T05:48:39;14.93;;;5.40;;
51718;SDS011;37795;53.236;5.704;2023-04-30T05:51:05;5.55;;;3.45;;
51718;SDS011;37795;53.236;5.704;2023-04-30T05:53:31;9.13;;;4.53;;
51718;SDS011;37795;53.236;5.704;2023-04-30T05:55:57;14.80;;;4.70;;
51718;SDS011;37795;53.236;5.704;2023-04-30T05:58:23;10.93;;;5.10;;
51718;SDS011;37795;53.236;5.704;2023-04-30T06:00:49;12.95;;;4.70;;
51718;SDS011;37795;53.236;5.704;2023-04-30T06:03:16;8.48;;;3.67;;
51718;SDS011;37795;53.236;5.704;2023-04-30T06:05:45;11.98;;;4.63;;
51718;SDS011;37795;53.236;5.704;2023-04-30T06:08:11;8.18;;;3.60;;
51718;SDS011;37795;53.236;5.704;2023-04-30T06:10:37;13.52;;;4.93;;
51718;SDS011;37795;53.236;5.704;2023-04-30T06:13:03;23.52;;;5.40;;
51718;SDS011;37795;53.236;5.704;2023-04-30T06:15:30;8.55;;;4.70;;
51718;SDS011;37795;53.236;5.704;2023-04-30T06:17:56;9.53;;;4.70;;
51718;SDS011;37795;53.236;5.704;2023-04-30T06:20:22;6.95;;;4.13;;
51718;SDS011;37795;53.236;5.704;2023-04-30T06:22:48;16.13;;;4.60;;
51718;SDS011;37795;53.236;5.704;2023-04-30T06:25:13;9.07;;;4.07;;
51718;SDS011;37795;53.236;5.704;2023-04-30T06:27:39;7.10;;;3.60;;
51718;SDS011;37795;53.236;5.704;2023-04-30T06:30:05;20.70;;;5.13;;
51718;SDS011;37795;53.236;5.704;2023-04-30T06:32:31;12.30;;;4.55;;
51718;SDS011;37795;53.236;5.704;2023-04-30T06:34:57;6.93;;;3.63;;
51718;SDS011;37795;53.236;5.704;2023-04-30T06:37:23;10.70;;;5.43;;
51718;SDS011;37795;53.236;5.704;2023-04-30T06:39:48;8.40;;;4.77;;
51718;SDS011;37795;53.236;5.704;2023-04-30T06:42:15;9.40;;;4.50;;
51718;SDS011;37795;53.236;5.704;2023-04-30T06:44:41;8.40;;;5.03;;
51718;SDS011;37795;53.236;5.704;2023-04-30T06:47:07;12.50;;;4.70;;
51718;SDS011;37795;53.236;5.704;2023-04-30T06:56:33;8.93;;;4.93;;
51718;SDS011;37795;53.236;5.704;2023-04-30T06:58:59;10.83;;;5.53;;
51718;SDS011;37795;53.236;5.704;2023-04-30T07:01:24;7.57;;;4.17;;
51718;SDS011;37795;53.236;5.704;2023-04-30T07:03:50;10.37;;;3.43;;
51718;SDS011;37795;53.236;5.704;2023-04-30T07:06:18;8.38;;;4.00;;
51718;SDS011;37795;53.236;5.704;2023-04-30T07:08:44;9.25;;;4.50;;
51718;SDS011;37795;53.236;5.704;2023-04-30T07:11:10;6.20;;;3.63;;
51718;SDS011;37795;53.236;5.704;2023-04-30T07:13:36;7.40;;;4.47;;
51718;SDS011;37795;53.236;5.704;2023-04-30T07:16:03;10.70;;;4.75;;
51718;SDS011;37795;53.236;5.704;2023-04-30T07:18:29;12.40;;;4.13;;
51718;SDS011;37795;53.236;5.704;2023-04-30T07:20:55;14.93;;;4.40;;
51718;SDS011;37795;53.236;5.704;2023-04-30T07:23:21;8.67;;;3.97;;
51718;SDS011;37795;53.236;5.704;2023-04-30T07:25:46;10.13;;;3.60;;
51718;SDS011;37795;53.236;5.704;2023-04-30T07:28:12;10.45;;;4.05;;
51718;SDS011;37795;53.236;5.704;2023-04-30T07:30:38;19.50;;;4.37;;
51718;SDS011;37795;53.236;5.704;2023-04-30T07:33:04;5.88;;;4.30;;
51718;SDS011;37795;53.236;5.704;2023-04-30T07:35:31;12.10;;;4.75;;
51718;SDS011;37795;53.236;5.704;2023-04-30T07:37:57;7.43;;;4.73;;
51718;SDS011;37795;53.236;5.704;2023-04-30T07:40:23;8.30;;;4.87;;
51718;SDS011;37795;53.236;5.704;2023-04-30T07:42:48;14.30;;;6.30;;
51718;SDS011;37795;53.236;5.704;2023-04-30T07:45:14;4.97;;;4.23;;
51718;SDS011;37795;53.236;5.704;2023-04-30T07:47:40;8.60;;;4.90;;
51718;SDS011;37795;53.236;5.704;2023-04-30T07:50:05;10.23;;;4.37;;
51718;SDS011;37795;53.236;5.704;2023-04-30T07:52:32;11.93;;;4.45;;
51718;SDS011;37795;53.236;5.704;2023-04-30T07:54:57;15.83;;;4.20;;
51718;SDS011;37795;53.236;5.704;2023-04-30T07:57:23;13.43;;;4.93;;
51718;SDS011;37795;53.236;5.704;2023-04-30T07:59:51;11.95;;;4.47;;
51718;SDS011;37795;53.236;5.704;2023-04-30T08:04:43;14.30;;;4.25;;
51718;SDS011;37795;53.236;5.704;2023-04-30T08:07:09;7.77;;;4.10;;
51718;SDS011;37795;53.236;5.704;2023-04-30T08:09:34;14.43;;;4.97;;
51718;SDS011;37795;53.236;5.704;2023-04-30T08:12:00;11.77;;;4.50;;
51718;SDS011;37795;53.236;5.704;2023-04-30T08:14:26;8.20;;;4.77;;
51718;SDS011;37795;53.236;5.704;2023-04-30T08:16:51;8.17;;;4.63;;
51718;SDS011;37795;53.236;5.704;2023-04-30T08:19:17;5.50;;;3.80;;
51718;SDS011;37795;53.236;5.704;2023-04-30T08:21:43;9.67;;;5.10;;
51718;SDS011;37795;53.236;5.704;2023-04-30T08:24:08;15.53;;;4.37;;
51718;SDS011;37795;53.236;5.704;2023-04-30T08:26:34;5.33;;;4.20;;
51718;SDS011;37795;53.236;5.704;2023-04-30T08:29:00;12.50;;;3.90;;
51718;SDS011;37795;53.236;5.704;2023-04-30T08:31:25;8.77;;;4.03;;
51718;SDS011;37795;53.236;5.704;2023-04-30T08:33:51;15.33;;;4.80;;
51718;SDS011;37795;53.236;5.704;2023-04-30T08:36:17;14.30;;;4.03;;
51718;SDS011;37795;53.236;5.704;2023-04-30T08:38:43;7.10;;;3.85;;
51718;SDS011;37795;53.236;5.704;2023-04-30T08:41:12;9.70;;;4.53;;
51718;SDS011;37795;53.236;5.704;2023-04-30T08:43:39;6.10;;;4.05;;
51718;SDS011;37795;53.236;5.704;2023-04-30T08:46:06;14.40;;;4.15;;
51718;SDS011;37795;53.236;5.704;2023-04-30T08:48:32;7.50;;;3.45;;
51718;SDS011;37795;53.236;5.704;2023-04-30T08:50:59;9.73;;;3.30;;
51718;SDS011;37795;53.236;5.704;2023-04-30T08:53:26;7.28;;;3.40;;
51718;SDS011;37795;53.236;5.704;2023-04-30T08:55:52;8.15;;;3.83;;
51718;SDS011;37795;53.236;5.704;2023-04-30T08:58:18;4.87;;;3.00;;
51718;SDS011;37795;53.236;5.704;2023-04-30T09:00:44;5.93;;;3.47;;
51718;SDS011;37795;53.236;5.704;2023-04-30T09:03:09;7.67;;;3.47;;
51718;SDS011;37795;53.236;5.704;2023-04-30T09:05:35;12.30;;;3.87;;
51718;SDS011;37795;53.236;5.704;2023-04-30T09:10:30;3.25;;;2.85;;
51718;SDS011;37795;53.236;5.704;2023-04-30T09:12:59;12.98;;;3.83;;
51718;SDS011;37795;53.236;5.704;2023-04-30T09:15:27;9.57;;;3.83;;
51718;SDS011;37795;53.236;5.704;2023-04-30T09:20:56;16.42;;;3.88;;
51718;SDS011;37795;53.236;5.704;2023-04-30T09:23:23;8.85;;;3.83;;
51718;SDS011;37795;53.236;5.704;2023-04-30T09:25:49;11.15;;;5.07;;
51718;SDS011;37795;53.236;5.704;2023-04-30T09:28:15;9.60;;;4.05;;
51718;SDS011;37795;53.236;5.704;2023-04-30T09:30:41;11.30;;;3.53;;
51718;SDS011;37795;53.236;5.704;2023-04-30T09:33:07;8.05;;;3.67;;
51718;SDS011;37795;53.236;5.704;2023-04-30T09:35:34;9.30;;;3.45;;
51718;SDS011;37795;53.236;5.704;2023-04-30T09:38:01;9.02;;;3.47;;
51718;SDS011;37795;53.236;5.704;2023-04-30T09:40:34;11.18;;;3.13;;
51718;SDS011;37795;53.236;5.704;2023-04-30T09:43:07;3.88;;;2.83;;
51718;SDS011;37795;53.236;5.704;2023-04-30T09:45:42;10.20;;;4.15;;
51718;SDS011;37795;53.236;5.704;2023-04-30T09:48:11;5.85;;;3.08;;
51718;SDS011;37795;53.236;5.704;2023-04-30T09:50:40;5.10;;;3.13;;
51718;SDS011;37795;53.236;5.704;2023-04-30T09:53:06;6.72;;;3.78;;
51718;SDS011;37795;53.236;5.704;2023-04-30T09:55:34;8.35;;;4.00;;
51718;SDS011;37795;53.236;5.704;2023-04-30T09:58:04;5.68;;;3.60;;
51718;SDS011;37795;53.236;5.704;2023-04-30T10:00:32;3.97;;;3.20;;
51718;SDS011;37795;53.236;5.704;2023-04-30T10:02:59;10.55;;;3.63;;
51718;SDS011;37795;53.236;5.704;2023-04-30T10:05:36;5.55;;;2.97;;
51718;SDS011;37795;53.236;5.704;2023-04-30T10:08:06;8.02;;;2.80;;
51718;SDS011;37795;53.236;5.704;2023-04-30T10:10:37;7.68;;;3.15;;
51718;SDS011;37795;53.236;5.704;2023-04-30T10:13:05;4.00;;;3.20;;
51718;SDS011;37795;53.236;5.704;2023-04-30T10:15:38;6.82;;;2.90;;
51718;SDS011;37795;53.236;5.704;2023-04-30T10:18:19;5.32;;;3.90;;
51718;SDS011;37795;53.236;5.704;2023-04-30T10:20:52;7.65;;;3.90;;
51718;SDS011;37795;53.236;5.704;2023-04-30T10:23:19;7.45;;;3.20;;
51718;SDS011;37795;53.236;5.704;2023-04-30T10:25:46;5.05;;;3.35;;
51718;SDS011;37795;53.236;5.704;2023-04-30T10:28:12;7.93;;;3.72;;
51718;SDS011;37795;53.236;5.704;2023-04-30T10:30:39;7.15;;;4.00;;
51718;SDS011;37795;53.236;5.704;2023-04-30T10:33:24;11.73;;;3.47;;
51718;SDS011;37795;53.236;5.704;2023-04-30T10:35:59;10.52;;;3.17;;
51718;SDS011;37795;53.236;5.704;2023-04-30T10:38:29;5.22;;;2.30;;
51718;SDS011;37795;53.236;5.704;2023-04-30T10:40:57;8.27;;;3.13;;
51718;SDS011;37795;53.236;5.704;2023-04-30T10:43:24;4.45;;;2.67;;
51718;SDS011;37795;53.236;5.704;2023-04-30T10:45:51;7.18;;;3.13;;
51718;SDS011;37795;53.236;5.704;2023-04-30T10:48:17;5.40;;;3.53;;
51718;SDS011;37795;53.236;5.704;2023-04-30T10:56:31;5.53;;;2.70;;
51718;SDS011;37795;53.236;5.704;2023-04-30T10:58:59;5.05;;;3.55;;
51718;SDS011;37795;53.236;5.704;2023-04-30T11:01:26;3.22;;;2.97;;
51718;SDS011;37795;53.236;5.704;2023-04-30T11:04:09;4.47;;;2.80;;
51718;SDS011;37795;53.236;5.704;2023-04-30T11:07:08;5.28;;;2.83;;
51718;SDS011;37795;53.236;5.704;2023-04-30T11:09:39;4.05;;;2.97;;
51718;SDS011;37795;53.236;5.704;2023-04-30T11:12:13;3.45;;;2.25;;
51718;SDS011;37795;53.236;5.704;2023-04-30T11:14:43;3.83;;;2.45;;
51718;SDS011;37795;53.236;5.704;2023-04-30T11:17:10;5.43;;;2.60;;
51718;SDS011;37795;53.236;5.704;2023-04-30T11:19:46;3.15;;;1.90;;
51718;SDS011;37795;53.236;5.704;2023-04-30T11:22:16;4.78;;;2.50;;
51718;SDS011;37795;53.236;5.704;2023-04-30T11:27:25;4.40;;;2.30;;
51718;SDS011;37795;53.236;5.704;2023-04-30T11:29:56;3.78;;;2.10;;
51718;SDS011;37795;53.236;5.704;2023-04-30T11:32:23;8.93;;;2.70;;
51718;SDS011;37795;53.236;5.704;2023-04-30T11:34:51;3.60;;;2.30;;
51718;SDS011;37795;53.236;5.704;2023-04-30T11:37:23;4.47;;;2.13;;
51718;SDS011;37795;53.236;5.704;2023-04-30T11:39:55;4.30;;;2.35;;
51718;SDS011;37795;53.236;5.704;2023-04-30T11:42:23;5.20;;;2.30;;
51718;SDS011;37795;53.236;5.704;2023-04-30T11:44:49;4.03;;;2.60;;
51718;SDS011;37795;53.236;5.704;2023-04-30T11:47:15;3.10;;;2.40;;
51718;SDS011;37795;53.236;5.704;2023-04-30T11:49:41;4.63;;;3.00;;
51718;SDS011;37795;53.236;5.704;2023-04-30T11:54:36;2.38;;;1.83;;
51718;SDS011;37795;53.236;5.704;2023-04-30T11:57:02;5.40;;;3.15;;
51718;SDS011;37795;53.236;5.704;2023-04-30T12:01:55;2.38;;;2.17;;
51718;SDS011;37795;53.236;5.704;2023-04-30T12:06:47;7.70;;;2.72;;
51718;SDS011;37795;53.236;5.704;2023-04-30T12:09:13;2.75;;;2.03;;
51718;SDS011;37795;53.236;5.704;2023-04-30T12:11:39;4.53;;;2.80;;
51718;SDS011;37795;53.236;5.704;2023-04-30T12:14:06;3.00;;;2.30;;
51718;SDS011;37795;53.236;5.704;2023-04-30T12:16:41;2.92;;;2.13;;
51718;SDS011;37795;53.236;5.704;2023-04-30T12:19:18;4.53;;;2.88;;
51718;SDS011;37795;53.236;5.704;2023-04-30T12:21:45;4.75;;;2.28;;
51718;SDS011;37795;53.236;5.704;2023-04-30T12:24:13;5.78;;;2.60;;
51718;SDS011;37795;53.236;5.704;2023-04-30T12:26:40;2.28;;;1.98;;
51718;SDS011;37795;53.236;5.704;2023-04-30T12:29:13;2.38;;;2.10;;
51718;SDS011;37795;53.236;5.704;2023-04-30T12:31:40;2.40;;;2.03;;
51718;SDS011;37795;53.236;5.704;2023-04-30T12:34:06;4.80;;;2.78;;
51718;SDS011;37795;53.236;5.704;2023-04-30T12:36:33;2.90;;;2.60;;
51718;SDS011;37795;53.236;5.704;2023-04-30T12:39:07;3.50;;;2.95;;
51718;SDS011;37795;53.236;5.704;2023-04-30T12:41:41;5.15;;;2.42;;
51718;SDS011;37795;53.236;5.704;2023-04-30T12:44:12;3.40;;;2.10;;
51718;SDS011;37795;53.236;5.704;2023-04-30T12:46:38;2.03;;;1.67;;
51718;SDS011;37795;53.236;5.704;2023-04-30T12:49:04;3.28;;;2.40;;
51718;SDS011;37795;53.236;5.704;2023-04-30T12:51:32;1.70;;;1.60;;
51718;SDS011;37795;53.236;5.704;2023-04-30T12:54:00;3.63;;;1.50;;
51718;SDS011;37795;53.236;5.704;2023-04-30T12:56:26;6.03;;;2.33;;
51718;SDS011;37795;53.236;5.704;2023-04-30T12:58:52;2.38;;;1.85;;
51718;SDS011;37795;53.236;5.704;2023-04-30T13:01:19;2.92;;;2.63;;
51718;SDS011;37795;53.236;5.704;2023-04-30T13:03:46;4.57;;;1.95;;
51718;SDS011;37795;53.236;5.704;2023-04-30T13:06:12;2.90;;;1.58;;
51718;SDS011;37795;53.236;5.704;2023-04-30T13:08:38;2.97;;;2.15;;
51718;SDS011;37795;53.236;5.704;2023-04-30T13:13:30;5.63;;;1.88;;
51718;SDS011;37795;53.236;5.704;2023-04-30T13:15:56;2.17;;;1.98;;
51718;SDS011;37795;53.236;5.704;2023-04-30T13:18:22;4.85;;;2.60;;
51718;SDS011;37795;53.236;5.704;2023-04-30T13:20:48;2.75;;;1.90;;
51718;SDS011;37795;53.236;5.704;2023-04-30T13:23:13;2.58;;;2.05;;
51718;SDS011;37795;53.236;5.704;2023-04-30T13:25:39;3.07;;;2.40;;
51718;SDS011;37795;53.236;5.704;2023-04-30T13:28:06;2.30;;;1.70;;
51718;SDS011;37795;53.236;5.704;2023-04-30T13:30:32;5.60;;;1.92;;
51718;SDS011;37795;53.236;5.704;2023-04-30T13:32:58;2.30;;;1.52;;
51718;SDS011;37795;53.236;5.704;2023-04-30T13:35:24;4.03;;;2.25;;
51718;SDS011;37795;53.236;5.704;2023-04-30T13:37:50;2.30;;;1.77;;
51718;SDS011;37795;53.236;5.704;2023-04-30T13:40:19;4.22;;;2.22;;
51718;SDS011;37795;53.236;5.704;2023-04-30T13:42:45;3.20;;;1.65;;
51718;SDS011;37795;53.236;5.704;2023-04-30T13:45:12;4.07;;;2.13;;
51718;SDS011;37795;53.236;5.704;2023-04-30T13:47:38;4.25;;;1.90;;
51718;SDS011;37795;53.236;5.704;2023-04-30T13:50:04;2.85;;;1.80;;
51718;SDS011;37795;53.236;5.704;2023-04-30T13:52:30;1.95;;;1.75;;
51718;SDS011;37795;53.236;5.704;2023-04-30T13:54:56;2.83;;;1.80;;
51718;SDS011;37795;53.236;5.704;2023-04-30T13:57:23;1.40;;;1.30;;
51718;SDS011;37795;53.236;5.704;2023-04-30T13:59:49;2.28;;;1.70;;
51718;SDS011;37795;53.236;5.704;2023-04-30T14:02:15;2.45;;;1.85;;
51718;SDS011;37795;53.236;5.704;2023-04-30T14:04:41;1.33;;;1.23;;
51718;SDS011;37795;53.236;5.704;2023-04-30T14:07:07;3.08;;;1.80;;
51718;SDS011;37795;53.236;5.704;2023-04-30T14:09:33;2.72;;;1.60;;
51718;SDS011;37795;53.236;5.704;2023-04-30T14:14:26;2.08;;;1.90;;
51718;SDS011;37795;53.236;5.704;2023-04-30T14:16:52;1.95;;;1.50;;
51718;SDS011;37795;53.236;5.704;2023-04-30T14:19:18;2.28;;;1.52;;
51718;SDS011;37795;53.236;5.704;2023-04-30T14:21:47;4.22;;;1.58;;
51718;SDS011;37795;53.236;5.704;2023-04-30T14:24:13;5.03;;;2.65;;
51718;SDS011;37795;53.236;5.704;2023-04-30T14:26:42;1.63;;;1.52;;
51718;SDS011;37795;53.236;5.704;2023-04-30T14:29:09;2.25;;;1.63;;
51718;SDS011;37795;53.236;5.704;2023-04-30T14:31:35;3.90;;;1.70;;
51718;SDS011;37795;53.236;5.704;2023-04-30T14:34:01;1.55;;;1.45;;
51718;SDS011;37795;53.236;5.704;2023-04-30T14:36:27;3.55;;;2.60;;
51718;SDS011;37795;53.236;5.704;2023-04-30T14:38:53;5.45;;;2.28;;
51718;SDS011;37795;53.236;5.704;2023-04-30T14:41:19;3.33;;;2.03;;
51718;SDS011;37795;53.236;5.704;2023-04-30T14:43:45;3.28;;;1.50;;
51718;SDS011;37795;53.236;5.704;2023-04-30T14:46:11;3.97;;;1.92;;
51718;SDS011;37795;53.236;5.704;2023-04-30T14:48:37;1.50;;;1.40;;
51718;SDS011;37795;53.236;5.704;2023-04-30T14:51:03;0.97;;;0.97;;
51718;SDS011;37795;53.236;5.704;2023-04-30T14:53:28;1.95;;;1.48;;
51718;SDS011;37795;53.236;5.704;2023-04-30T14:55:54;2.33;;;1.60;;
51718;SDS011;37795;53.236;5.704;2023-04-30T14:58:20;2.78;;;1.75;;
51718;SDS011;37795;53.236;5.704;2023-04-30T15:00:46;2.25;;;2.03;;
51718;SDS011;37795;53.236;5.704;2023-04-30T15:03:15;2.92;;;1.73;;
51718;SDS011;37795;53.236;5.704;2023-04-30T15:05:40;2.00;;;1.67;;
51718;SDS011;37795;53.236;5.704;2023-04-30T15:08:06;3.58;;;1.35;;
51718;SDS011;37795;53.236;5.704;2023-04-30T15:10:32;1.30;;;1.20;;
51718;SDS011;37795;53.236;5.704;2023-04-30T15:12:58;3.03;;;1.50;;
51718;SDS011;37795;53.236;5.704;2023-04-30T15:15:23;3.23;;;1.87;;
51718;SDS011;37795;53.236;5.704;2023-04-30T15:17:56;1.50;;;1.40;;
51718;SDS011;37795;53.236;5.704;2023-04-30T15:20:22;1.27;;;1.17;;
51718;SDS011;37795;53.236;5.704;2023-04-30T15:22:51;1.88;;;1.35;;
51718;SDS011;37795;53.236;5.704;2023-04-30T15:25:19;2.00;;;1.80;;
51718;SDS011;37795;53.236;5.704;2023-04-30T15:27:46;4.07;;;1.40;;
51718;SDS011;37795;53.236;5.704;2023-04-30T15:30:11;15.10;;;1.88;;
51718;SDS011;37795;53.236;5.704;2023-04-30T15:32:37;4.93;;;1.98;;
51718;SDS011;37795;53.236;5.704;2023-04-30T15:35:03;1.90;;;1.58;;
51718;SDS011;37795;53.236;5.704;2023-04-30T15:37:30;3.08;;;1.60;;